sensor_id;sensor_type;location;lat;lon;timestamp;pressure;altitude;pressure_sealevel;temperature;humidity
82555;BME280;72219;48.186;11.554;2024-03-23T00:55:30;95183.25;;;19.35;43.13
82555;BME280;72219;48.186;11.554;2024-03-23T00:57:55;95184.69;;;19.30;43.17
82555;BME280;72219;48.186;11.554;2024-03-23T01:00:21;95170.41;;;19.13;43.31
82555;BME280;72219;48.186;11.554;2024-03-23T01:02:46;95166.34;;;19.17;43.43
82555;BME280;72219;48.186;11.554;2024-03-23T01:05:11;95157.88;;;19.15;43.24
82555;BME280;72219;48.186;11.554;2024-03-23T01:07:37;95169.16;;;19.29;43.09
82555;BME280;72219;48.186;11.554;2024-03-23T01:10:02;95169.94;;;19.29;43.05
82555;BME280;72219;48.186;11.554;2024-03-23T01:12:28;95159.25;;;19.24;43.09
82555;BME280;72219;48.186;11.554;2024-03-23T01:14:53;95161.13;;;19.17;43.25
82555;BME280;72219;48.186;11.554;2024-03-23T01:17:18;95148.59;;;19.19;43.29
82555;BME280;72219;48.186;11.554;2024-03-23T01:19:44;95138.94;;;19.13;43.26
82555;BME280;72219;48.186;11.554;2024-03-23T01:22:09;95128.88;;;19.03;43.36
82555;BME280;72219;48.186;11.554;2024-03-23T01:24:37;95142.94;;;19.22;43.19
82555;BME280;72219;48.186;11.554;2024-03-23T01:27:03;95139.34;;;19.16;43.50
82555;BME280;72219;48.186;11.554;2024-03-23T01:29:28;95134.69;;;19.12;43.06
82555;BME280;72219;48.186;11.554;2024-03-23T01:31:54;95126.41;;;19.15;43.18
82555;BME280;72219;48.186;11.554;2024-03-23T01:34:19;95131.06;;;19.13;43.15
82555;BME280;72219;48.186;11.554;2024-03-23T01:36:46;95129.44;;;19.12;43.46
82555;BME280;72219;48.186;11.554;2024-03-23T01:39:12;95130.84;;;19.14;43.27
82555;BME280;72219;48.186;11.554;2024-03-23T01:41:37;95129.66;;;19.17;43.44
82555;BME280;72219;48.186;11.554;2024-03-23T01:44:05;95124.59;;;19.15;43.46
82555;BME280;72219;48.186;11.554;2024-03-23T01:46:35;95116.34;;;19.12;43.09
82555;BME280;72219;48.186;11.554;2024-03-23T01:49:01;95123.41;;;19.11;43.16
82555;BME280;72219;48.186;11.554;2024-03-23T01:51:27;95121.19;;;19.08;43.50
82555;BME280;72219;48.186;11.554;2024-03-23T01:53:54;95120.38;;;19.08;43.61
82555;BME280;72219;48.186;11.554;2024-03-23T01:56:20;95094.00;;;18.96;43.44
82555;BME280;72219;48.186;11.554;2024-03-23T01:58:45;95119.19;;;19.10;43.47
82555;BME280;72219;48.186;11.554;2024-03-23T02:01:11;95115.34;;;19.06;43.40
82555;BME280;72219;48.186;11.554;2024-03-23T02:03:37;95114.94;;;19.09;43.42
82555;BME280;72219;48.186;11.554;2024-03-23T02:06:02;95104.66;;;19.08;43.40
82555;BME280;72219;48.186;11.554;2024-03-23T02:08:28;95085.13;;;18.97;43.36
82555;BME280;72219;48.186;11.554;2024-03-23T02:10:55;95106.28;;;19.02;43.39
82555;BME280;72219;48.186;11.554;2024-03-23T02:13:22;95098.22;;;19.04;43.30
82555;BME280;72219;48.186;11.554;2024-03-23T02:15:47;95099.41;;;19.08;43.27
82555;BME280;72219;48.186;11.554;2024-03-23T02:18:13;95074.06;;;18.95;43.77
82555;BME280;72219;48.186;11.554;2024-03-23T02:20:39;95065.38;;;18.88;43.31
82555;BME280;72219;48.186;11.554;2024-03-23T02:23:05;95086.13;;;18.96;43.53
82555;BME280;72219;48.186;11.554;2024-03-23T02:25:33;95059.94;;;18.82;43.30
82555;BME280;72219;48.186;11.554;2024-03-23T02:27:59;95086.31;;;19.01;43.39
82555;BME280;72219;48.186;11.554;2024-03-23T02:30:25;95079.06;;;19.03;43.10
82555;BME280;72219;48.186;11.554;2024-03-23T02:32:51;95080.66;;;19.04;43.44
82555;BME280;72219;48.186;11.554;2024-03-23T02:35:16;95065.75;;;19.05;43.36
82555;BME280;72219;48.186;11.554;2024-03-23T02:37:42;95063.59;;;18.95;43.36
82555;BME280;72219;48.186;11.554;2024-03-23T02:40:07;95067.78;;;18.96;43.44
82555;BME280;72219;48.186;11.554;2024-03-23T02:42:33;95068.00;;;18.94;43.48
82555;BME280;72219;48.186;11.554;2024-03-23T02:44:58;95053.28;;;18.93;43.56
82555;BME280;72219;48.186;11.554;2024-03-23T02:47:24;95051.25;;;18.95;43.58
82555;BME280;72219;48.186;11.554;2024-03-23T02:49:49;95031.94;;;18.90;43.43
82555;BME280;72219;48.186;11.554;2024-03-23T02:52:14;95049.03;;;18.99;43.36
82555;BME280;72219;48.186;11.554;2024-03-23T02:54:40;95047.44;;;18.91;43.38
82555;BME280;72219;48.186;11.554;2024-03-23T02:57:07;95047.44;;;18.91;43.52
82555;BME280;72219;48.186;11.554;2024-03-23T02:59:32;95050.50;;;18.88;43.72
82555;BME280;72219;48.186;11.554;2024-03-23T03:01:58;95030.50;;;18.87;43.27
82555;BME280;72219;48.186;11.554;2024-03-23T03:04:25;95051.84;;;18.97;43.39
82555;BME280;72219;48.186;11.554;2024-03-23T03:06:50;95046.03;;;18.95;43.48
82555;BME280;72219;48.186;11.554;2024-03-23T03:09:15;95039.59;;;18.91;43.36
82555;BME280;72219;48.186;11.554;2024-03-23T03:11:41;95040.16;;;18.93;43.31
82555;BME280;72219;48.186;11.554;2024-03-23T03:14:06;95033.53;;;18.91;43.05
82555;BME280;72219;48.186;11.554;2024-03-23T03:16:33;95028.09;;;18.92;43.54
82555;BME280;72219;48.186;11.554;2024-03-23T03:18:58;95025.25;;;18.87;43.58
82555;BME280;72219;48.186;11.554;2024-03-23T03:21:24;95008.56;;;18.75;43.40
82555;BME280;72219;48.186;11.554;2024-03-23T03:23:49;95016.41;;;18.81;43.30
82555;BME280;72219;48.186;11.554;2024-03-23T03:26:16;95023.25;;;18.89;43.28
82555;BME280;72219;48.186;11.554;2024-03-23T03:28:42;95017.59;;;18.86;43.35
82555;BME280;72219;48.186;11.554;2024-03-23T03:31:08;95021.44;;;18.83;43.35
82555;BME280;72219;48.186;11.554;2024-03-23T03:33:34;95024.66;;;18.85;43.55
82555;BME280;72219;48.186;11.554;2024-03-23T03:35:59;94981.00;;;18.59;43.67
82555;BME280;72219;48.186;11.554;2024-03-23T03:38:24;94989.84;;;18.71;43.33
82555;BME280;72219;48.186;11.554;2024-03-23T03:40:50;95013.94;;;18.87;43.45
82555;BME280;72219;48.186;11.554;2024-03-23T03:43:15;95006.50;;;18.83;43.47
82555;BME280;72219;48.186;11.554;2024-03-23T03:45:41;94994.41;;;18.82;43.52
82555;BME280;72219;48.186;11.554;2024-03-23T03:48:06;95000.50;;;18.76;43.63
82555;BME280;72219;48.186;11.554;2024-03-23T03:50:32;95002.88;;;18.85;43.40
82555;BME280;72219;48.186;11.554;2024-03-23T03:52:57;94993.41;;;18.83;43.49
82555;BME280;72219;48.186;11.554;2024-03-23T03:55:22;94981.00;;;18.65;43.80
82555;BME280;72219;48.186;11.554;2024-03-23T03:57:48;94980.00;;;18.66;43.52
82555;BME280;72219;48.186;11.554;2024-03-23T04:00:14;94975.13;;;18.63;43.48
82555;BME280;72219;48.186;11.554;2024-03-23T04:02:39;94970.50;;;18.65;43.52
82555;BME280;72219;48.186;11.554;2024-03-23T04:05:06;94976.09;;;18.76;43.58
82555;BME280;72219;48.186;11.554;2024-03-23T04:07:31;94965.25;;;18.72;43.48
82555;BME280;72219;48.186;11.554;2024-03-23T04:09:57;94977.69;;;18.83;43.44
82555;BME280;72219;48.186;11.554;2024-03-23T04:12:23;94966.81;;;18.80;43.72
82555;BME280;72219;48.186;11.554;2024-03-23T04:14:48;94964.03;;;18.75;43.41
82555;BME280;72219;48.186;11.554;2024-03-23T04:17:14;94953.50;;;18.81;43.51
82555;BME280;72219;48.186;11.554;2024-03-23T04:19:39;94945.50;;;18.70;43.31
82555;BME280;72219;48.186;11.554;2024-03-23T04:22:04;94945.72;;;18.68;43.64
82555;BME280;72219;48.186;11.554;2024-03-23T04:24:30;94928.81;;;18.64;43.79
82555;BME280;72219;48.186;11.554;2024-03-23T04:26:55;94914.91;;;18.57;43.71
82555;BME280;72219;48.186;11.554;2024-03-23T04:29:21;94938.81;;;18.74;43.55
82555;BME280;72219;48.186;11.554;2024-03-23T04:31:46;94929.78;;;18.70;43.78
82555;BME280;72219;48.186;11.554;2024-03-23T04:34:12;94921.31;;;18.67;43.48
82555;BME280;72219;48.186;11.554;2024-03-23T04:36:38;94917.50;;;18.63;43.55
82555;BME280;72219;48.186;11.554;2024-03-23T04:39:03;94920.09;;;18.70;43.55
82555;BME280;72219;48.186;11.554;2024-03-23T04:41:29;94903.81;;;18.61;43.69
82555;BME280;72219;48.186;11.554;2024-03-23T04:43:55;94907.84;;;18.64;43.29
82555;BME280;72219;48.186;11.554;2024-03-23T04:46:20;94899.16;;;18.63;43.65
82555;BME280;72219;48.186;11.554;2024-03-23T04:48:46;94905.78;;;18.66;43.58
82555;BME280;72219;48.186;11.554;2024-03-23T04:51:20;94908.63;;;18.64;43.61
82555;BME280;72219;48.186;11.554;2024-03-23T04:53:46;94877.88;;;18.53;43.54
82555;BME280;72219;48.186;11.554;2024-03-23T04:56:11;94896.31;;;18.65;43.47
82555;BME280;72219;48.186;11.554;2024-03-23T04:58:38;94899.16;;;18.63;43.51
82555;BME280;72219;48.186;11.554;2024-03-23T05:01:04;94892.69;;;18.66;43.59
82555;BME280;72219;48.186;11.554;2024-03-23T05:03:29;94874.56;;;18.64;43.35
82555;BME280;72219;48.186;11.554;2024-03-23T05:05:54;94868.16;;;18.60;43.76
82555;BME280;72219;48.186;11.554;2024-03-23T05:08:20;94874.34;;;18.66;43.58
82555;BME280;72219;48.186;11.554;2024-03-23T05:10:45;94856.13;;;18.46;43.44
82555;BME280;72219;48.186;11.554;2024-03-23T05:13:11;94872.16;;;18.63;43.36
82555;BME280;72219;48.186;11.554;2024-03-23T05:15:37;94859.66;;;18.58;43.49
82555;BME280;72219;48.186;11.554;2024-03-23T05:18:05;94860.28;;;18.60;43.28
82555;BME280;72219;48.186;11.554;2024-03-23T05:20:31;94871.91;;;18.71;43.21
82555;BME280;72219;48.186;11.554;2024-03-23T05:22:57;94843.16;;;18.58;43.29
82555;BME280;72219;48.186;11.554;2024-03-23T05:25:22;94863.84;;;18.73;43.14
82555;BME280;72219;48.186;11.554;2024-03-23T05:27:48;94857.63;;;18.67;43.26
82555;BME280;72219;48.186;11.554;2024-03-23T05:30:13;94856.56;;;18.75;43.14
82555;BME280;72219;48.186;11.554;2024-03-23T05:32:39;94854.34;;;18.72;43.16
82555;BME280;72219;48.186;11.554;2024-03-23T05:35:07;94852.38;;;18.67;43.10
82555;BME280;72219;48.186;11.554;2024-03-23T05:37:33;94853.56;;;18.71;43.07
82555;BME280;72219;48.186;11.554;2024-03-23T05:39:59;94847.88;;;18.74;42.99
82555;BME280;72219;48.186;11.554;2024-03-23T05:42:26;94846.88;;;18.75;42.90
82555;BME280;72219;48.186;11.554;2024-03-23T05:44:51;94857.31;;;18.82;42.93
82555;BME280;72219;48.186;11.554;2024-03-23T05:47:17;94849.06;;;18.78;43.10
82555;BME280;72219;48.186;11.554;2024-03-23T05:49:42;94851.13;;;18.76;43.13
82555;BME280;72219;48.186;11.554;2024-03-23T05:52:09;94853.91;;;18.88;42.93
82555;BME280;72219;48.186;11.554;2024-03-23T05:54:34;94843.78;;;18.85;42.60
82555;BME280;72219;48.186;11.554;2024-03-23T05:57:00;94835.34;;;18.83;42.85
82555;BME280;72219;48.186;11.554;2024-03-23T05:59:26;94832.72;;;18.83;42.79
82555;BME280;72219;48.186;11.554;2024-03-23T06:01:52;94833.28;;;18.92;42.83
82555;BME280;72219;48.186;11.554;2024-03-23T06:04:17;94819.81;;;18.88;42.73
82555;BME280;72219;48.186;11.554;2024-03-23T06:06:43;94810.94;;;18.82;42.52
82555;BME280;72219;48.186;11.554;2024-03-23T06:09:08;94786.00;;;18.73;42.58
82555;BME280;72219;48.186;11.554;2024-03-23T06:11:34;94810.88;;;18.96;42.39
82555;BME280;72219;48.186;11.554;2024-03-23T06:13:59;94805.84;;;18.94;42.52
82555;BME280;72219;48.186;11.554;2024-03-23T06:16:24;94801.72;;;19.05;42.30
82555;BME280;72219;48.186;11.554;2024-03-23T06:18:50;94784.09;;;18.94;42.24
82555;BME280;72219;48.186;11.554;2024-03-23T06:21:16;94798.09;;;19.06;42.30
82555;BME280;72219;48.186;11.554;2024-03-23T06:23:42;94784.75;;;19.08;41.81
82555;BME280;72219;48.186;11.554;2024-03-23T06:26:07;94786.72;;;19.12;42.08
82555;BME280;72219;48.186;11.554;2024-03-23T06:28:34;94770.69;;;19.02;42.07
82555;BME280;72219;48.186;11.554;2024-03-23T06:31:01;94780.53;;;19.07;42.05
82555;BME280;72219;48.186;11.554;2024-03-23T06:33:26;94777.91;;;19.07;42.10
82555;BME280;72219;48.186;11.554;2024-03-23T06:35:51;94765.63;;;19.07;42.20
82555;BME280;72219;48.186;11.554;2024-03-23T06:38:17;94765.03;;;19.05;42.30
82555;BME280;72219;48.186;11.554;2024-03-23T06:40:43;94757.25;;;19.17;42.02
82555;BME280;72219;48.186;11.554;2024-03-23T06:43:13;94745.53;;;19.20;41.83
82555;BME280;72219;48.186;11.554;2024-03-23T06:45:38;94739.91;;;19.16;42.06
82555;BME280;72219;48.186;11.554;2024-03-23T06:48:04;94736.56;;;19.09;42.15
82555;BME280;72219;48.186;11.554;2024-03-23T06:50:33;94743.19;;;19.11;42.04
82555;BME280;72219;48.186;11.554;2024-03-23T06:52:58;94736.44;;;19.22;41.98
82555;BME280;72219;48.186;11.554;2024-03-23T06:55:24;94701.66;;;19.08;41.38
82555;BME280;72219;48.186;11.554;2024-03-23T06:57:52;94722.81;;;19.32;41.40
82555;BME280;72219;48.186;11.554;2024-03-23T07:00:17;94726.50;;;19.24;41.37
82555;BME280;72219;48.186;11.554;2024-03-23T07:02:44;94712.69;;;19.17;41.28
82555;BME280;72219;48.186;11.554;2024-03-23T07:05:10;94730.59;;;19.39;41.24
82555;BME280;72219;48.186;11.554;2024-03-23T07:07:37;94737.09;;;19.55;40.85
82555;BME280;72219;48.186;11.554;2024-03-23T07:10:04;94714.28;;;19.55;40.65
82555;BME280;72219;48.186;11.554;2024-03-23T07:12:30;94713.25;;;19.56;40.51
82555;BME280;72219;48.186;11.554;2024-03-23T07:14:55;94730.53;;;19.64;40.09
82555;BME280;72219;48.186;11.554;2024-03-23T07:17:20;94715.59;;;19.46;40.66
82555;BME280;72219;48.186;11.554;2024-03-23T07:19:46;94731.47;;;19.51;40.60
82555;BME280;72219;48.186;11.554;2024-03-23T07:22:11;94732.06;;;19.53;40.63
82555;BME280;72219;48.186;11.554;2024-03-23T07:24:37;94715.28;;;19.54;40.24
82555;BME280;72219;48.186;11.554;2024-03-23T07:27:04;94732.41;;;19.57;40.24
82555;BME280;72219;48.186;11.554;2024-03-23T07:29:30;94746.19;;;19.71;39.89
82555;BME280;72219;48.186;11.554;2024-03-23T07:31:55;94747.75;;;19.60;40.16
82555;BME280;72219;48.186;11.554;2024-03-23T07:34:20;94753.34;;;19.26;40.58
82555;BME280;72219;48.186;11.554;2024-03-23T07:36:46;94770.94;;;19.19;40.81
82555;BME280;72219;48.186;11.554;2024-03-23T07:39:11;94778.34;;;19.04;41.24
82555;BME280;72219;48.186;11.554;2024-03-23T07:41:37;94801.25;;;18.90;41.28
82555;BME280;72219;48.186;11.554;2024-03-23T07:44:02;94832.06;;;18.94;41.57
82555;BME280;72219;48.186;11.554;2024-03-23T07:46:28;94830.44;;;18.93;41.30
82555;BME280;72219;48.186;11.554;2024-03-23T07:48:53;94824.94;;;19.02;41.34
82555;BME280;72219;48.186;11.554;2024-03-23T07:51:22;94824.94;;;19.02;41.23
82555;BME280;72219;48.186;11.554;2024-03-23T07:53:48;94842.50;;;19.01;41.28
82555;BME280;72219;48.186;11.554;2024-03-23T07:56:15;94828.78;;;19.06;41.23
82555;BME280;72219;48.186;11.554;2024-03-23T07:58:42;94854.78;;;19.07;41.24
82555;BME280;72219;48.186;11.554;2024-03-23T08:01:09;94868.28;;;19.04;41.45
82555;BME280;72219;48.186;11.554;2024-03-23T08:03:35;94861.03;;;19.06;41.27
82555;BME280;72219;48.186;11.554;2024-03-23T08:08:32;94865.22;;;19.14;41.03
82555;BME280;72219;48.186;11.554;2024-03-23T08:10:58;94894.47;;;19.11;41.16
82555;BME280;72219;48.186;11.554;2024-03-23T08:13:23;94883.75;;;19.12;41.24
82555;BME280;72219;48.186;11.554;2024-03-23T08:15:48;94881.03;;;19.01;41.30
82555;BME280;72219;48.186;11.554;2024-03-23T08:18:14;94905.16;;;19.09;41.06
82555;BME280;72219;48.186;11.554;2024-03-23T08:20:40;94897.03;;;18.92;41.27
82555;BME280;72219;48.186;11.554;2024-03-23T08:23:06;94923.63;;;18.89;41.40
82555;BME280;72219;48.186;11.554;2024-03-23T08:25:32;94972.66;;;18.89;41.81
82555;BME280;72219;48.186;11.554;2024-03-23T08:27:58;95007.31;;;18.84;41.88
82555;BME280;72219;48.186;11.554;2024-03-23T08:30:23;94988.78;;;18.86;41.70
82555;BME280;72219;48.186;11.554;2024-03-23T08:32:49;94989.78;;;18.85;41.89
82555;BME280;72219;48.186;11.554;2024-03-23T08:35:14;94995.03;;;18.91;41.50
82555;BME280;72219;48.186;11.554;2024-03-23T08:37:40;94975.66;;;18.86;41.51
82555;BME280;72219;48.186;11.554;2024-03-23T08:40:05;95004.28;;;18.94;41.52
82555;BME280;72219;48.186;11.554;2024-03-23T08:42:31;95001.38;;;19.09;41.52
82555;BME280;72219;48.186;11.554;2024-03-23T08:45:03;94978.28;;;18.92;41.41
82555;BME280;72219;48.186;11.554;2024-03-23T08:47:29;95001.81;;;19.06;41.20
82555;BME280;72219;48.186;11.554;2024-03-23T08:49:54;95005.81;;;19.08;41.35
82555;BME280;72219;48.186;11.554;2024-03-23T08:52:22;94993.56;;;19.02;41.35
82555;BME280;72219;48.186;11.554;2024-03-23T08:54:48;94996.59;;;18.99;41.26
82555;BME280;72219;48.186;11.554;2024-03-23T08:57:13;95027.78;;;19.14;41.28
82555;BME280;72219;48.186;11.554;2024-03-23T08:59:39;95027.66;;;18.95;41.51
82555;BME280;72219;48.186;11.554;2024-03-23T09:02:05;95038.38;;;18.87;41.98
82555;BME280;72219;48.186;11.554;2024-03-23T09:04:30;95044.63;;;18.79;42.05
82555;BME280;72219;48.186;11.554;2024-03-23T09:06:57;95037.63;;;18.66;42.28
82555;BME280;72219;48.186;11.554;2024-03-23T09:09:25;95053.53;;;18.72;42.09
82555;BME280;72219;48.186;11.554;2024-03-23T09:11:50;95030.84;;;18.45;42.37
82555;BME280;72219;48.186;11.554;2024-03-23T09:14:15;95036.06;;;18.45;42.30
82555;BME280;72219;48.186;11.554;2024-03-23T09:16:41;95061.59;;;18.63;42.14
82555;BME280;72219;48.186;11.554;2024-03-23T09:19:06;95061.16;;;18.80;42.12
82555;BME280;72219;48.186;11.554;2024-03-23T09:21:32;95057.94;;;18.85;42.08
82555;BME280;72219;48.186;11.554;2024-03-23T09:23:58;95052.50;;;18.79;41.72
82555;BME280;72219;48.186;11.554;2024-03-23T09:26:23;95046.06;;;18.75;41.98
82555;BME280;72219;48.186;11.554;2024-03-23T09:28:49;95059.53;;;18.86;41.97
82555;BME280;72219;48.186;11.554;2024-03-23T09:31:14;95044.88;;;18.64;42.08
82555;BME280;72219;48.186;11.554;2024-03-23T09:33:40;95064.81;;;18.72;42.17
82555;BME280;72219;48.186;11.554;2024-03-23T09:36:06;95071.50;;;18.68;42.11
82555;BME280;72219;48.186;11.554;2024-03-23T09:38:32;95035.22;;;18.58;42.05
82555;BME280;72219;48.186;11.554;2024-03-23T09:40:58;95076.50;;;18.90;41.72
82555;BME280;72219;48.186;11.554;2024-03-23T09:43:24;95057.09;;;18.84;41.58
82555;BME280;72219;48.186;11.554;2024-03-23T09:45:50;95039.19;;;18.74;41.91
82555;BME280;72219;48.186;11.554;2024-03-23T09:48:16;95052.94;;;18.70;41.68
82555;BME280;72219;48.186;11.554;2024-03-23T09:50:43;95080.31;;;18.80;41.87
82555;BME280;72219;48.186;11.554;2024-03-23T09:53:11;95089.41;;;18.78;41.77
82555;BME280;72219;48.186;11.554;2024-03-23T09:55:38;95104.28;;;18.84;41.80
82555;BME280;72219;48.186;11.554;2024-03-23T09:58:06;95091.81;;;18.73;41.77
82555;BME280;72219;48.186;11.554;2024-03-23T10:00:33;95103.16;;;18.60;42.02
82555;BME280;72219;48.186;11.554;2024-03-23T10:02:59;95114.84;;;18.57;42.21
82555;BME280;72219;48.186;11.554;2024-03-23T10:05:28;95131.38;;;18.58;42.24
82555;BME280;72219;48.186;11.554;2024-03-23T10:07:53;95128.16;;;18.49;42.37
82555;BME280;72219;48.186;11.554;2024-03-23T10:10:19;95111.84;;;18.47;42.29
82555;BME280;72219;48.186;11.554;2024-03-23T10:12:50;95147.50;;;18.41;42.55
82555;BME280;72219;48.186;11.554;2024-03-23T10:15:21;95107.22;;;18.49;42.22
82555;BME280;72219;48.186;11.554;2024-03-23T10:17:47;95062.72;;;18.15;42.36
82555;BME280;72219;48.186;11.554;2024-03-23T10:20:18;95124.72;;;18.48;42.41
82555;BME280;72219;48.186;11.554;2024-03-23T10:22:45;95121.31;;;18.55;42.34
82555;BME280;72219;48.186;11.554;2024-03-23T10:25:11;95127.34;;;18.48;42.29
82555;BME280;72219;48.186;11.554;2024-03-23T10:27:37;95126.34;;;18.49;42.20
82555;BME280;72219;48.186;11.554;2024-03-23T10:30:13;95123.72;;;18.43;42.43
82555;BME280;72219;48.186;11.554;2024-03-23T10:32:42;95109.84;;;18.36;42.43
82555;BME280;72219;48.186;11.554;2024-03-23T10:35:18;95131.38;;;18.58;42.27
82555;BME280;72219;48.186;11.554;2024-03-23T10:37:44;95115.44;;;18.46;42.22
82555;BME280;72219;48.186;11.554;2024-03-23T10:40:11;95128.53;;;18.59;42.23
82555;BME280;72219;48.186;11.554;2024-03-23T10:42:38;95147.88;;;18.72;41.97
82555;BME280;72219;48.186;11.554;2024-03-23T10:45:07;95127.13;;;18.50;41.91
82555;BME280;72219;48.186;11.554;2024-03-23T10:47:35;95140.63;;;18.67;41.98
82555;BME280;72219;48.186;11.554;2024-03-23T10:50:01;95139.22;;;18.71;41.45
82555;BME280;72219;48.186;11.554;2024-03-23T10:52:27;95173.69;;;18.88;41.36
82555;BME280;72219;48.186;11.554;2024-03-23T10:54:54;95172.06;;;19.01;40.86
82555;BME280;72219;48.186;11.554;2024-03-23T10:57:30;95166.00;;;19.00;41.06
82555;BME280;72219;48.186;11.554;2024-03-23T11:00:02;95169.25;;;18.89;40.84
82555;BME280;72219;48.186;11.554;2024-03-23T11:02:28;95190.41;;;18.94;41.38
82555;BME280;72219;48.186;11.554;2024-03-23T11:04:55;95190.63;;;18.79;41.62
82555;BME280;72219;48.186;11.554;2024-03-23T11:09:52;95202.09;;;18.44;42.24
82555;BME280;72219;48.186;11.554;2024-03-23T11:15:04;95214.59;;;18.82;41.60
82555;BME280;72219;48.186;11.554;2024-03-23T11:17:30;95220.66;;;18.76;41.70
82555;BME280;72219;48.186;11.554;2024-03-23T11:20:02;95230.13;;;18.71;41.89
82555;BME280;72219;48.186;11.554;2024-03-23T11:25:03;95228.53;;;18.70;41.86
82555;BME280;72219;48.186;11.554;2024-03-23T11:27:28;95209.97;;;18.78;41.62
82555;BME280;72219;48.186;11.554;2024-03-23T11:29:54;95177.50;;;18.72;41.64
82555;BME280;72219;48.186;11.554;2024-03-23T11:32:19;95184.19;;;18.88;41.19
82555;BME280;72219;48.186;11.554;2024-03-23T11:34:45;95206.34;;;18.99;41.13
82555;BME280;72219;48.186;11.554;2024-03-23T11:37:10;95208.13;;;19.05;40.88
82555;BME280;72219;48.186;11.554;2024-03-23T11:39:35;95179.91;;;19.01;40.63
82555;BME280;72219;48.186;11.554;2024-03-23T11:42:01;95206.69;;;19.16;40.14
82555;BME280;72219;48.186;11.554;2024-03-23T11:44:26;95208.06;;;19.39;40.15
82555;BME280;72219;48.186;11.554;2024-03-23T11:46:52;95204.44;;;19.33;40.25
82555;BME280;72219;48.186;11.554;2024-03-23T11:49:27;95219.94;;;19.48;39.74
82555;BME280;72219;48.186;11.554;2024-03-23T11:51:54;95217.75;;;19.45;39.90
82555;BME280;72219;48.186;11.554;2024-03-23T11:54:21;95221.16;;;19.45;40.09
82555;BME280;72219;48.186;11.554;2024-03-23T11:57:00;95196.53;;;19.46;39.98
82555;BME280;72219;48.186;11.554;2024-03-23T12:01:58;95184.38;;;19.59;39.71
82555;BME280;72219;48.186;11.554;2024-03-23T12:04:30;95190.50;;;19.32;40.05
82555;BME280;72219;48.186;11.554;2024-03-23T12:07:17;95204.00;;;19.43;40.08
82555;BME280;72219;48.186;11.554;2024-03-23T12:10:07;95195.72;;;19.46;39.50
82555;BME280;72219;48.186;11.554;2024-03-23T12:12:33;95194.75;;;19.33;39.98
82555;BME280;72219;48.186;11.554;2024-03-23T12:15:08;95190.28;;;19.41;39.84
82555;BME280;72219;48.186;11.554;2024-03-23T12:17:34;95194.13;;;19.45;39.59
82555;BME280;72219;48.186;11.554;2024-03-23T12:20:00;95186.28;;;19.38;39.68
82555;BME280;72219;48.186;11.554;2024-03-23T12:22:26;95185.66;;;19.36;39.88
82555;BME280;72219;48.186;11.554;2024-03-23T12:24:52;95188.44;;;19.48;39.90
82555;BME280;72219;48.186;11.554;2024-03-23T12:27:17;95190.28;;;19.41;39.46
82555;BME280;72219;48.186;11.554;2024-03-23T12:29:43;95206.06;;;19.34;40.03
82555;BME280;72219;48.186;11.554;2024-03-23T12:32:11;95167.81;;;18.99;40.33
82555;BME280;72219;48.186;11.554;2024-03-23T12:34:37;95190.75;;;19.24;40.05
82555;BME280;72219;48.186;11.554;2024-03-23T12:37:02;95138.38;;;18.91;40.51
82555;BME280;72219;48.186;11.554;2024-03-23T12:39:28;95192.41;;;18.98;40.81
82555;BME280;72219;48.186;11.554;2024-03-23T12:41:53;95173.06;;;18.86;40.60
82555;BME280;72219;48.186;11.554;2024-03-23T12:44:19;95194.59;;;19.15;40.40
82555;BME280;72219;48.186;11.554;2024-03-23T12:46:44;95177.59;;;19.31;39.91
82555;BME280;72219;48.186;11.554;2024-03-23T12:49:12;95145.97;;;19.19;39.67
82555;BME280;72219;48.186;11.554;2024-03-23T12:51:38;95133.94;;;19.05;39.56
82555;BME280;72219;48.186;11.554;2024-03-23T12:54:04;95157.03;;;19.28;39.67
82555;BME280;72219;48.186;11.554;2024-03-23T12:56:29;95172.53;;;19.43;39.64
82555;BME280;72219;48.186;11.554;2024-03-23T12:58:55;95153.75;;;19.39;39.27
82555;BME280;72219;48.186;11.554;2024-03-23T13:01:25;95179.13;;;19.59;39.15
82555;BME280;72219;48.186;11.554;2024-03-23T13:03:51;95171.66;;;19.62;39.38
82555;BME280;72219;48.186;11.554;2024-03-23T13:06:17;95171.81;;;19.61;39.20
82555;BME280;72219;48.186;11.554;2024-03-23T13:08:47;95172.03;;;19.59;38.91
82555;BME280;72219;48.186;11.554;2024-03-23T13:11:15;95193.72;;;19.41;39.73
82555;BME280;72219;48.186;11.554;2024-03-23T13:13:41;95200.84;;;19.27;39.55
82555;BME280;72219;48.186;11.554;2024-03-23T13:16:07;95194.22;;;19.05;40.28
82555;BME280;72219;48.186;11.554;2024-03-23T13:18:35;95186.16;;;18.99;40.59
82555;BME280;72219;48.186;11.554;2024-03-23T13:21:00;95170.03;;;18.76;41.23
82555;BME280;72219;48.186;11.554;2024-03-23T13:23:26;95166.84;;;18.67;40.82
82555;BME280;72219;48.186;11.554;2024-03-23T13:25:51;95147.06;;;18.71;41.07
82555;BME280;72219;48.186;11.554;2024-03-23T13:28:18;95122.09;;;18.55;41.14
82555;BME280;72219;48.186;11.554;2024-03-23T13:30:54;95128.53;;;18.66;40.81
82555;BME280;72219;48.186;11.554;2024-03-23T13:33:20;95137.00;;;18.68;40.50
82555;BME280;72219;48.186;11.554;2024-03-23T13:35:52;95145.66;;;18.75;40.90
82555;BME280;72219;48.186;11.554;2024-03-23T13:38:18;95158.94;;;18.80;40.92
82555;BME280;72219;48.186;11.554;2024-03-23T13:43:15;95172.09;;;18.54;41.33
82555;BME280;72219;48.186;11.554;2024-03-23T13:45:41;95164.84;;;18.42;41.82
82555;BME280;72219;48.186;11.554;2024-03-23T13:48:06;95179.16;;;18.46;41.46
82555;BME280;72219;48.186;11.554;2024-03-23T13:50:32;95167.44;;;18.22;41.78
82555;BME280;72219;48.186;11.554;2024-03-23T13:52:57;95199.66;;;18.23;41.90
82555;BME280;72219;48.186;11.554;2024-03-23T13:55:22;95231.88;;;18.16;42.13